sensor_id;sensor_type;location;lat;lon;timestamp;P1;durP1;ratioP1;P2;durP2;ratioP2
36799;SDS011;22752;51.960;5.886;2024-02-04T00:00:43;22.67;;;16.43;;
36799;SDS011;22752;51.960;5.886;2024-02-04T00:03:09;23.07;;;16.30;;
36799;SDS011;22752;51.960;5.886;2024-02-04T00:05:34;20.20;;;14.37;;
36799;SDS011;22752;51.960;5.886;2024-02-04T00:08:00;20.57;;;15.33;;
36799;SDS011;22752;51.960;5.886;2024-02-04T00:10:27;23.00;;;15.40;;
36799;SDS011;22752;51.960;5.886;2024-02-04T00:12:53;18.90;;;13.63;;
36799;SDS011;22752;51.960;5.886;2024-02-04T00:15:19;16.27;;;13.30;;
36799;SDS011;22752;51.960;5.886;2024-02-04T00:17:44;18.90;;;14.27;;
36799;SDS011;22752;51.960;5.886;2024-02-04T00:20:10;21.03;;;15.57;;
36799;SDS011;22752;51.960;5.886;2024-02-04T00:22:36;19.03;;;15.20;;
36799;SDS011;22752;51.960;5.886;2024-02-04T00:25:01;21.87;;;16.60;;
36799;SDS011;22752;51.960;5.886;2024-02-04T00:27:33;21.50;;;16.07;;
36799;SDS011;22752;51.960;5.886;2024-02-04T00:29:59;17.97;;;14.50;;
36799;SDS011;22752;51.960;5.886;2024-02-04T00:32:25;21.20;;;16.97;;
36799;SDS011;22752;51.960;5.886;2024-02-04T00:34:51;25.07;;;17.10;;
36799;SDS011;22752;51.960;5.886;2024-02-04T00:37:17;23.90;;;16.63;;
36799;SDS011;22752;51.960;5.886;2024-02-04T00:39:43;26.77;;;18.33;;
36799;SDS011;22752;51.960;5.886;2024-02-04T00:42:08;32.03;;;20.37;;
36799;SDS011;22752;51.960;5.886;2024-02-04T00:44:34;33.40;;;19.90;;
36799;SDS011;22752;51.960;5.886;2024-02-04T00:47:00;39.13;;;22.53;;
36799;SDS011;22752;51.960;5.886;2024-02-04T00:49:25;35.07;;;21.10;;
36799;SDS011;22752;51.960;5.886;2024-02-04T00:51:52;37.95;;;21.50;;
36799;SDS011;22752;51.960;5.886;2024-02-04T00:54:18;37.00;;;22.40;;
36799;SDS011;22752;51.960;5.886;2024-02-04T00:56:43;38.23;;;21.83;;
36799;SDS011;22752;51.960;5.886;2024-02-04T00:59:09;39.83;;;21.90;;
36799;SDS011;22752;51.960;5.886;2024-02-04T01:01:35;37.97;;;20.70;;
36799;SDS011;22752;51.960;5.886;2024-02-04T01:04:01;40.60;;;21.27;;
36799;SDS011;22752;51.960;5.886;2024-02-04T01:06:26;43.37;;;22.33;;
36799;SDS011;22752;51.960;5.886;2024-02-04T01:08:54;37.20;;;20.67;;
36799;SDS011;22752;51.960;5.886;2024-02-04T01:11:21;37.13;;;21.33;;
36799;SDS011;22752;51.960;5.886;2024-02-04T01:13:46;30.50;;;20.07;;
36799;SDS011;22752;51.960;5.886;2024-02-04T01:16:12;34.97;;;19.63;;
36799;SDS011;22752;51.960;5.886;2024-02-04T01:18:38;33.47;;;18.97;;
36799;SDS011;22752;51.960;5.886;2024-02-04T01:21:03;36.07;;;19.20;;
36799;SDS011;22752;51.960;5.886;2024-02-04T01:23:29;33.87;;;19.00;;
36799;SDS011;22752;51.960;5.886;2024-02-04T01:25:55;37.30;;;19.67;;
36799;SDS011;22752;51.960;5.886;2024-02-04T01:28:20;36.07;;;20.30;;
36799;SDS011;22752;51.960;5.886;2024-02-04T01:30:46;33.67;;;19.77;;
36799;SDS011;22752;51.960;5.886;2024-02-04T01:33:12;38.00;;;19.33;;
36799;SDS011;22752;51.960;5.886;2024-02-04T01:35:37;38.73;;;19.73;;
36799;SDS011;22752;51.960;5.886;2024-02-04T01:38:03;38.50;;;19.35;;
36799;SDS011;22752;51.960;5.886;2024-02-04T01:40:29;38.50;;;19.37;;
36799;SDS011;22752;51.960;5.886;2024-02-04T01:42:54;32.77;;;18.57;;
36799;SDS011;22752;51.960;5.886;2024-02-04T01:45:21;41.40;;;20.27;;
36799;SDS011;22752;51.960;5.886;2024-02-04T01:47:47;35.03;;;17.90;;
36799;SDS011;22752;51.960;5.886;2024-02-04T01:50:13;36.27;;;19.30;;
36799;SDS011;22752;51.960;5.886;2024-02-04T01:52:40;32.10;;;17.17;;
36799;SDS011;22752;51.960;5.886;2024-02-04T01:55:07;36.60;;;18.17;;
36799;SDS011;22752;51.960;5.886;2024-02-04T01:57:34;36.50;;;17.73;;
36799;SDS011;22752;51.960;5.886;2024-02-04T02:00:00;40.10;;;19.20;;
36799;SDS011;22752;51.960;5.886;2024-02-04T02:02:27;28.57;;;17.13;;
36799;SDS011;22752;51.960;5.886;2024-02-04T02:04:53;33.57;;;16.93;;
36799;SDS011;22752;51.960;5.886;2024-02-04T02:07:19;32.43;;;15.97;;
36799;SDS011;22752;51.960;5.886;2024-02-04T02:09:46;30.20;;;17.83;;
36799;SDS011;22752;51.960;5.886;2024-02-04T02:12:17;32.80;;;18.83;;
36799;SDS011;22752;51.960;5.886;2024-02-04T02:14:50;37.87;;;16.93;;
36799;SDS011;22752;51.960;5.886;2024-02-04T02:17:24;37.10;;;16.43;;
36799;SDS011;22752;51.960;5.886;2024-02-04T02:20:12;28.73;;;16.13;;
36799;SDS011;22752;51.960;5.886;2024-02-04T02:25:32;34.90;;;16.27;;
36799;SDS011;22752;51.960;5.886;2024-02-04T02:28:01;26.37;;;15.43;;
36799;SDS011;22752;51.960;5.886;2024-02-04T02:30:26;31.13;;;15.30;;
36799;SDS011;22752;51.960;5.886;2024-02-04T02:32:52;30.17;;;16.53;;
36799;SDS011;22752;51.960;5.886;2024-02-04T02:35:18;30.53;;;15.50;;
36799;SDS011;22752;51.960;5.886;2024-02-04T02:40:30;29.07;;;15.67;;
36799;SDS011;22752;51.960;5.886;2024-02-04T02:43:02;32.00;;;15.13;;
36799;SDS011;22752;51.960;5.886;2024-02-04T02:45:28;26.77;;;15.73;;
36799;SDS011;22752;51.960;5.886;2024-02-04T02:47:54;27.00;;;15.03;;
36799;SDS011;22752;51.960;5.886;2024-02-04T02:50:20;27.10;;;14.63;;
36799;SDS011;22752;51.960;5.886;2024-02-04T02:52:47;27.50;;;13.90;;
36799;SDS011;22752;51.960;5.886;2024-02-04T02:55:12;27.97;;;14.47;;
36799;SDS011;22752;51.960;5.886;2024-02-04T02:57:38;25.73;;;13.30;;
36799;SDS011;22752;51.960;5.886;2024-02-04T03:00:04;22.83;;;12.57;;
36799;SDS011;22752;51.960;5.886;2024-02-04T03:02:31;25.80;;;13.63;;
36799;SDS011;22752;51.960;5.886;2024-02-04T03:04:57;24.30;;;13.80;;
36799;SDS011;22752;51.960;5.886;2024-02-04T03:07:23;28.77;;;15.53;;
36799;SDS011;22752;51.960;5.886;2024-02-04T03:09:48;31.07;;;15.90;;
36799;SDS011;22752;51.960;5.886;2024-02-04T03:12:14;25.37;;;14.43;;
36799;SDS011;22752;51.960;5.886;2024-02-04T03:14:39;26.80;;;14.03;;
36799;SDS011;22752;51.960;5.886;2024-02-04T03:17:05;21.90;;;14.60;;
36799;SDS011;22752;51.960;5.886;2024-02-04T03:19:31;28.27;;;14.03;;
36799;SDS011;22752;51.960;5.886;2024-02-04T03:21:57;26.70;;;14.93;;
36799;SDS011;22752;51.960;5.886;2024-02-04T03:24:22;25.43;;;14.80;;
36799;SDS011;22752;51.960;5.886;2024-02-04T03:26:48;27.17;;;15.43;;
36799;SDS011;22752;51.960;5.886;2024-02-04T03:29:13;26.60;;;16.50;;
36799;SDS011;22752;51.960;5.886;2024-02-04T03:31:39;37.63;;;19.77;;
36799;SDS011;22752;51.960;5.886;2024-02-04T03:34:05;33.70;;;20.10;;
36799;SDS011;22752;51.960;5.886;2024-02-04T03:36:30;39.83;;;20.27;;
36799;SDS011;22752;51.960;5.886;2024-02-04T03:38:56;38.13;;;22.43;;
36799;SDS011;22752;51.960;5.886;2024-02-04T03:41:22;48.63;;;26.50;;
36799;SDS011;22752;51.960;5.886;2024-02-04T03:43:48;49.40;;;26.03;;
36799;SDS011;22752;51.960;5.886;2024-02-04T03:46:14;44.53;;;24.80;;
36799;SDS011;22752;51.960;5.886;2024-02-04T03:48:40;34.23;;;21.23;;
36799;SDS011;22752;51.960;5.886;2024-02-04T03:51:06;33.00;;;20.10;;
36799;SDS011;22752;51.960;5.886;2024-02-04T03:53:32;34.60;;;19.83;;
36799;SDS011;22752;51.960;5.886;2024-02-04T03:55:58;36.50;;;18.53;;
36799;SDS011;22752;51.960;5.886;2024-02-04T03:58:24;35.07;;;18.40;;
36799;SDS011;22752;51.960;5.886;2024-02-04T04:00:57;23.27;;;14.17;;
36799;SDS011;22752;51.960;5.886;2024-02-04T04:03:22;26.00;;;13.63;;
36799;SDS011;22752;51.960;5.886;2024-02-04T04:05:48;23.10;;;12.33;;
36799;SDS011;22752;51.960;5.886;2024-02-04T04:08:14;27.77;;;14.10;;
36799;SDS011;22752;51.960;5.886;2024-02-04T04:10:40;25.10;;;13.13;;
36799;SDS011;22752;51.960;5.886;2024-02-04T04:13:05;20.47;;;11.03;;
36799;SDS011;22752;51.960;5.886;2024-02-04T04:15:31;23.47;;;12.93;;
36799;SDS011;22752;51.960;5.886;2024-02-04T04:17:57;18.87;;;11.10;;
36799;SDS011;22752;51.960;5.886;2024-02-04T04:20:22;18.33;;;10.33;;
36799;SDS011;22752;51.960;5.886;2024-02-04T04:22:48;25.00;;;12.60;;
36799;SDS011;22752;51.960;5.886;2024-02-04T04:25:13;24.00;;;12.53;;
36799;SDS011;22752;51.960;5.886;2024-02-04T04:27:39;23.03;;;13.47;;
36799;SDS011;22752;51.960;5.886;2024-02-04T04:30:05;20.23;;;12.60;;
36799;SDS011;22752;51.960;5.886;2024-02-04T04:32:31;24.07;;;14.03;;
36799;SDS011;22752;51.960;5.886;2024-02-04T04:34:57;28.87;;;14.70;;
36799;SDS011;22752;51.960;5.886;2024-02-04T04:37:23;22.90;;;14.23;;
36799;SDS011;22752;51.960;5.886;2024-02-04T04:39:48;26.70;;;14.20;;
36799;SDS011;22752;51.960;5.886;2024-02-04T04:42:14;27.13;;;14.13;;
36799;SDS011;22752;51.960;5.886;2024-02-04T04:44:40;23.90;;;12.77;;
36799;SDS011;22752;51.960;5.886;2024-02-04T04:47:05;24.47;;;12.97;;
36799;SDS011;22752;51.960;5.886;2024-02-04T04:49:31;27.70;;;13.30;;
36799;SDS011;22752;51.960;5.886;2024-02-04T04:51:56;26.27;;;13.27;;
36799;SDS011;22752;51.960;5.886;2024-02-04T04:54:22;27.73;;;13.80;;
36799;SDS011;22752;51.960;5.886;2024-02-04T04:56:48;27.10;;;15.30;;
36799;SDS011;22752;51.960;5.886;2024-02-04T04:59:15;31.97;;;15.07;;
36799;SDS011;22752;51.960;5.886;2024-02-04T05:01:45;23.70;;;14.67;;
36799;SDS011;22752;51.960;5.886;2024-02-04T05:04:11;30.23;;;15.50;;
36799;SDS011;22752;51.960;5.886;2024-02-04T05:06:37;23.90;;;14.80;;
36799;SDS011;22752;51.960;5.886;2024-02-04T05:09:03;28.27;;;15.10;;
36799;SDS011;22752;51.960;5.886;2024-02-04T05:11:28;25.27;;;14.00;;
36799;SDS011;22752;51.960;5.886;2024-02-04T05:13:54;28.30;;;15.87;;
36799;SDS011;22752;51.960;5.886;2024-02-04T05:16:20;23.13;;;13.87;;
36799;SDS011;22752;51.960;5.886;2024-02-04T05:18:45;29.33;;;15.20;;
36799;SDS011;22752;51.960;5.886;2024-02-04T05:21:11;22.33;;;14.00;;
36799;SDS011;22752;51.960;5.886;2024-02-04T05:23:37;23.63;;;14.40;;
36799;SDS011;22752;51.960;5.886;2024-02-04T05:26:03;20.60;;;12.10;;
36799;SDS011;22752;51.960;5.886;2024-02-04T05:28:30;22.47;;;11.50;;
36799;SDS011;22752;51.960;5.886;2024-02-04T05:30:56;23.83;;;12.30;;
36799;SDS011;22752;51.960;5.886;2024-02-04T05:33:21;19.00;;;11.13;;
36799;SDS011;22752;51.960;5.886;2024-02-04T05:35:47;18.57;;;10.93;;
36799;SDS011;22752;51.960;5.886;2024-02-04T05:38:12;22.33;;;10.83;;
36799;SDS011;22752;51.960;5.886;2024-02-04T05:40:38;22.93;;;11.53;;
36799;SDS011;22752;51.960;5.886;2024-02-04T05:43:04;19.13;;;10.10;;
36799;SDS011;22752;51.960;5.886;2024-02-04T05:45:32;21.67;;;10.90;;
36799;SDS011;22752;51.960;5.886;2024-02-04T05:47:58;20.50;;;11.23;;
36799;SDS011;22752;51.960;5.886;2024-02-04T05:50:24;24.97;;;13.07;;
36799;SDS011;22752;51.960;5.886;2024-02-04T05:52:50;25.97;;;11.77;;
36799;SDS011;22752;51.960;5.886;2024-02-04T05:55:15;24.13;;;11.60;;
36799;SDS011;22752;51.960;5.886;2024-02-04T05:57:41;22.67;;;13.00;;
36799;SDS011;22752;51.960;5.886;2024-02-04T06:00:07;21.43;;;12.43;;
36799;SDS011;22752;51.960;5.886;2024-02-04T06:02:37;23.47;;;12.77;;
36799;SDS011;22752;51.960;5.886;2024-02-04T06:05:02;24.63;;;12.07;;
36799;SDS011;22752;51.960;5.886;2024-02-04T06:07:28;24.13;;;12.27;;
36799;SDS011;22752;51.960;5.886;2024-02-04T06:09:54;22.30;;;11.20;;
36799;SDS011;22752;51.960;5.886;2024-02-04T06:12:25;23.90;;;12.77;;
36799;SDS011;22752;51.960;5.886;2024-02-04T06:14:50;19.50;;;11.93;;
36799;SDS011;22752;51.960;5.886;2024-02-04T06:17:16;24.50;;;12.53;;
36799;SDS011;22752;51.960;5.886;2024-02-04T06:19:42;18.93;;;11.47;;
36799;SDS011;22752;51.960;5.886;2024-02-04T06:22:07;24.60;;;13.23;;
36799;SDS011;22752;51.960;5.886;2024-02-04T06:24:34;24.30;;;12.30;;
36799;SDS011;22752;51.960;5.886;2024-02-04T06:27:02;20.30;;;12.47;;
36799;SDS011;22752;51.960;5.886;2024-02-04T06:29:28;25.97;;;14.63;;
36799;SDS011;22752;51.960;5.886;2024-02-04T06:31:53;21.30;;;12.97;;
36799;SDS011;22752;51.960;5.886;2024-02-04T06:34:19;21.30;;;13.50;;
36799;SDS011;22752;51.960;5.886;2024-02-04T06:36:45;23.20;;;14.53;;
36799;SDS011;22752;51.960;5.886;2024-02-04T06:39:10;28.00;;;16.47;;
36799;SDS011;22752;51.960;5.886;2024-02-04T06:41:36;26.33;;;18.47;;
36799;SDS011;22752;51.960;5.886;2024-02-04T06:44:02;31.00;;;20.47;;
36799;SDS011;22752;51.960;5.886;2024-02-04T06:46:29;33.40;;;21.90;;
36799;SDS011;22752;51.960;5.886;2024-02-04T06:48:55;40.30;;;25.17;;
36799;SDS011;22752;51.960;5.886;2024-02-04T06:51:20;43.23;;;26.07;;
36799;SDS011;22752;51.960;5.886;2024-02-04T06:53:46;42.07;;;26.47;;
36799;SDS011;22752;51.960;5.886;2024-02-04T06:56:12;41.07;;;25.47;;
36799;SDS011;22752;51.960;5.886;2024-02-04T06:58:38;40.20;;;26.63;;
36799;SDS011;22752;51.960;5.886;2024-02-04T07:01:04;48.50;;;28.13;;
36799;SDS011;22752;51.960;5.886;2024-02-04T07:03:30;38.13;;;25.37;;
36799;SDS011;22752;51.960;5.886;2024-02-04T07:05:57;39.77;;;25.43;;
36799;SDS011;22752;51.960;5.886;2024-02-04T07:08:23;41.77;;;26.97;;
36799;SDS011;22752;51.960;5.886;2024-02-04T07:10:48;38.87;;;25.07;;
36799;SDS011;22752;51.960;5.886;2024-02-04T07:13:14;42.17;;;27.97;;
36799;SDS011;22752;51.960;5.886;2024-02-04T07:15:40;38.33;;;26.37;;
36799;SDS011;22752;51.960;5.886;2024-02-04T07:18:05;33.40;;;22.77;;
36799;SDS011;22752;51.960;5.886;2024-02-04T07:20:31;40.17;;;26.13;;
36799;SDS011;22752;51.960;5.886;2024-02-04T07:22:57;34.63;;;22.60;;
36799;SDS011;22752;51.960;5.886;2024-02-04T07:25:23;35.77;;;22.30;;
36799;SDS011;22752;51.960;5.886;2024-02-04T07:27:48;32.37;;;20.63;;
36799;SDS011;22752;51.960;5.886;2024-02-04T07:30:14;34.63;;;21.87;;
36799;SDS011;22752;51.960;5.886;2024-02-04T07:32:40;35.13;;;23.43;;
36799;SDS011;22752;51.960;5.886;2024-02-04T07:35:06;36.13;;;21.87;;
36799;SDS011;22752;51.960;5.886;2024-02-04T07:37:33;35.27;;;21.07;;
36799;SDS011;22752;51.960;5.886;2024-02-04T07:40:02;36.73;;;21.17;;
36799;SDS011;22752;51.960;5.886;2024-02-04T07:42:30;39.33;;;20.90;;
36799;SDS011;22752;51.960;5.886;2024-02-04T07:44:56;32.03;;;18.87;;
36799;SDS011;22752;51.960;5.886;2024-02-04T07:47:21;30.40;;;18.83;;
36799;SDS011;22752;51.960;5.886;2024-02-04T07:49:48;39.37;;;19.30;;
36799;SDS011;22752;51.960;5.886;2024-02-04T07:52:13;29.90;;;17.90;;
36799;SDS011;22752;51.960;5.886;2024-02-04T07:54:39;30.63;;;16.50;;
36799;SDS011;22752;51.960;5.886;2024-02-04T07:57:05;25.93;;;14.70;;
36799;SDS011;22752;51.960;5.886;2024-02-04T07:59:30;28.90;;;15.43;;
36799;SDS011;22752;51.960;5.886;2024-02-04T08:01:56;28.17;;;15.33;;
36799;SDS011;22752;51.960;5.886;2024-02-04T08:04:22;23.13;;;13.57;;
36799;SDS011;22752;51.960;5.886;2024-02-04T08:06:47;22.90;;;13.13;;
36799;SDS011;22752;51.960;5.886;2024-02-04T08:09:13;32.03;;;14.50;;
36799;SDS011;22752;51.960;5.886;2024-02-04T08:11:39;22.07;;;12.50;;
36799;SDS011;22752;51.960;5.886;2024-02-04T08:14:05;26.40;;;13.07;;
36799;SDS011;22752;51.960;5.886;2024-02-04T08:16:31;26.70;;;13.07;;
36799;SDS011;22752;51.960;5.886;2024-02-04T08:18:57;30.40;;;13.40;;
36799;SDS011;22752;51.960;5.886;2024-02-04T08:21:23;23.20;;;12.93;;
36799;SDS011;22752;51.960;5.886;2024-02-04T08:23:48;29.40;;;13.60;;
36799;SDS011;22752;51.960;5.886;2024-02-04T08:26:14;20.80;;;11.40;;
36799;SDS011;22752;51.960;5.886;2024-02-04T08:28:40;32.07;;;12.87;;
36799;SDS011;22752;51.960;5.886;2024-02-04T08:31:05;25.63;;;12.03;;
36799;SDS011;22752;51.960;5.886;2024-02-04T08:33:31;24.50;;;11.23;;
36799;SDS011;22752;51.960;5.886;2024-02-04T08:35:57;25.10;;;11.40;;
36799;SDS011;22752;51.960;5.886;2024-02-04T08:38:22;22.13;;;11.13;;
36799;SDS011;22752;51.960;5.886;2024-02-04T08:40:48;22.00;;;10.80;;
36799;SDS011;22752;51.960;5.886;2024-02-04T08:43:13;21.97;;;10.67;;
36799;SDS011;22752;51.960;5.886;2024-02-04T08:45:39;31.20;;;11.00;;
36799;SDS011;22752;51.960;5.886;2024-02-04T08:48:05;21.13;;;9.73;;
36799;SDS011;22752;51.960;5.886;2024-02-04T08:50:31;30.17;;;11.37;;
36799;SDS011;22752;51.960;5.886;2024-02-04T08:52:57;15.90;;;8.97;;
36799;SDS011;22752;51.960;5.886;2024-02-04T08:55:23;21.70;;;9.17;;
36799;SDS011;22752;51.960;5.886;2024-02-04T08:57:48;19.80;;;8.60;;
36799;SDS011;22752;51.960;5.886;2024-02-04T09:00:15;22.83;;;8.33;;
36799;SDS011;22752;51.960;5.886;2024-02-04T09:02:41;23.77;;;8.37;;
36799;SDS011;22752;51.960;5.886;2024-02-04T09:05:07;18.80;;;7.57;;
36799;SDS011;22752;51.960;5.886;2024-02-04T09:07:33;13.53;;;7.30;;
36799;SDS011;22752;51.960;5.886;2024-02-04T09:09:59;14.33;;;7.83;;
36799;SDS011;22752;51.960;5.886;2024-02-04T09:12:24;14.07;;;6.87;;
36799;SDS011;22752;51.960;5.886;2024-02-04T09:14:50;17.37;;;7.87;;
36799;SDS011;22752;51.960;5.886;2024-02-04T09:17:16;13.93;;;7.73;;
36799;SDS011;22752;51.960;5.886;2024-02-04T09:19:41;13.00;;;8.23;;
36799;SDS011;22752;51.960;5.886;2024-02-04T09:22:07;13.23;;;8.33;;
36799;SDS011;22752;51.960;5.886;2024-02-04T09:24:33;17.10;;;9.10;;
36799;SDS011;22752;51.960;5.886;2024-02-04T09:26:58;19.17;;;9.90;;
36799;SDS011;22752;51.960;5.886;2024-02-04T09:29:24;15.57;;;9.77;;
36799;SDS011;22752;51.960;5.886;2024-02-04T09:31:50;16.43;;;10.03;;
36799;SDS011;22752;51.960;5.886;2024-02-04T09:34:16;16.90;;;9.97;;
36799;SDS011;22752;51.960;5.886;2024-02-04T09:36:44;19.17;;;10.10;;
36799;SDS011;22752;51.960;5.886;2024-02-04T09:39:09;20.00;;;10.23;;
36799;SDS011;22752;51.960;5.886;2024-02-04T09:41:35;19.40;;;10.20;;
36799;SDS011;22752;51.960;5.886;2024-02-04T09:44:01;20.93;;;10.07;;
36799;SDS011;22752;51.960;5.886;2024-02-04T09:46:29;19.80;;;9.93;;
36799;SDS011;22752;51.960;5.886;2024-02-04T09:48:55;14.27;;;8.90;;
36799;SDS011;22752;51.960;5.886;2024-02-04T09:51:21;19.77;;;8.97;;
36799;SDS011;22752;51.960;5.886;2024-02-04T09:53:48;16.77;;;9.70;;
36799;SDS011;22752;51.960;5.886;2024-02-04T09:56:17;18.50;;;7.60;;
36799;SDS011;22752;51.960;5.886;2024-02-04T09:58:43;10.20;;;6.83;;
36799;SDS011;22752;51.960;5.886;2024-02-04T10:01:10;13.70;;;6.13;;
36799;SDS011;22752;51.960;5.886;2024-02-04T10:03:36;13.33;;;6.63;;
36799;SDS011;22752;51.960;5.886;2024-02-04T10:06:02;15.77;;;6.17;;
36799;SDS011;22752;51.960;5.886;2024-02-04T10:08:28;14.97;;;5.97;;
36799;SDS011;22752;51.960;5.886;2024-02-04T10:10:54;13.83;;;6.27;;
36799;SDS011;22752;51.960;5.886;2024-02-04T10:13:19;12.77;;;5.67;;
36799;SDS011;22752;51.960;5.886;2024-02-04T10:15:49;10.17;;;4.97;;
36799;SDS011;22752;51.960;5.886;2024-02-04T10:18:16;11.03;;;6.20;;
36799;SDS011;22752;51.960;5.886;2024-02-04T10:20:43;15.27;;;4.97;;
36799;SDS011;22752;51.960;5.886;2024-02-04T10:23:09;33.40;;;29.70;;
36799;SDS011;22752;51.960;5.886;2024-02-04T10:25:34;31.47;;;26.13;;
36799;SDS011;22752;51.960;5.886;2024-02-04T10:28:00;32.77;;;24.90;;
36799;SDS011;22752;51.960;5.886;2024-02-04T10:30:26;23.73;;;14.03;;
36799;SDS011;22752;51.960;5.886;2024-02-04T10:32:52;14.37;;;7.07;;
36799;SDS011;22752;51.960;5.886;2024-02-04T10:35:21;10.37;;;5.00;;
36799;SDS011;22752;51.960;5.886;2024-02-04T10:37:51;9.63;;;4.70;;
36799;SDS011;22752;51.960;5.886;2024-02-04T10:40:17;7.20;;;3.50;;
36799;SDS011;22752;51.960;5.886;2024-02-04T10:42:43;10.07;;;3.43;;
36799;SDS011;22752;51.960;5.886;2024-02-04T10:45:10;10.13;;;3.23;;
36799;SDS011;22752;51.960;5.886;2024-02-04T10:47:37;11.77;;;3.30;;
36799;SDS011;22752;51.960;5.886;2024-02-04T10:50:04;6.83;;;2.90;;
36799;SDS011;22752;51.960;5.886;2024-02-04T10:52:36;9.23;;;3.20;;
36799;SDS011;22752;51.960;5.886;2024-02-04T10:55:07;8.15;;;3.22;;
36799;SDS011;22752;51.960;5.886;2024-02-04T10:57:34;8.40;;;2.77;;
36799;SDS011;22752;51.960;5.886;2024-02-04T11:00:00;8.47;;;2.80;;
36799;SDS011;22752;51.960;5.886;2024-02-04T11:02:29;6.27;;;2.70;;
36799;SDS011;22752;51.960;5.886;2024-02-04T11:04:57;9.17;;;2.40;;
36799;SDS011;22752;51.960;5.886;2024-02-04T11:07:24;6.28;;;1.95;;
36799;SDS011;22752;51.960;5.886;2024-02-04T11:09:53;8.52;;;1.92;;
36799;SDS011;22752;51.960;5.886;2024-02-04T11:12:19;6.80;;;1.70;;
36799;SDS011;22752;51.960;5.886;2024-02-04T11:14:48;5.28;;;1.85;;
36799;SDS011;22752;51.960;5.886;2024-02-04T11:20:10;8.05;;;1.63;;
36799;SDS011;22752;51.960;5.886;2024-02-04T11:25:54;4.63;;;1.50;;
36799;SDS011;22752;51.960;5.886;2024-02-04T11:28:21;4.43;;;1.50;;
36799;SDS011;22752;51.960;5.886;2024-02-04T11:30:48;2.90;;;1.33;;
36799;SDS011;22752;51.960;5.886;2024-02-04T11:33:18;3.80;;;1.67;;
36799;SDS011;22752;51.960;5.886;2024-02-04T11:35:45;2.53;;;1.47;;
36799;SDS011;22752;51.960;5.886;2024-02-04T11:38:11;2.50;;;1.40;;
36799;SDS011;22752;51.960;5.886;2024-02-04T11:40:39;2.23;;;1.40;;
36799;SDS011;22752;51.960;5.886;2024-02-04T11:43:09;4.13;;;1.33;;
36799;SDS011;22752;51.960;5.886;2024-02-04T11:45:42;1.80;;;1.23;;
36799;SDS011;22752;51.960;5.886;2024-02-04T11:48:11;1.98;;;1.45;;
36799;SDS011;22752;51.960;5.886;2024-02-04T11:50:37;2.80;;;1.40;;
36799;SDS011;22752;51.960;5.886;2024-02-04T11:53:05;3.57;;;1.60;;
36799;SDS011;22752;51.960;5.886;2024-02-04T11:55:33;2.73;;;1.40;;
36799;SDS011;22752;51.960;5.886;2024-02-04T11:58:00;2.93;;;1.83;;
36799;SDS011;22752;51.960;5.886;2024-02-04T12:00:27;4.50;;;2.00;;
36799;SDS011;22752;51.960;5.886;2024-02-04T12:03:28;3.27;;;1.97;;
36799;SDS011;22752;51.960;5.886;2024-02-04T12:05:55;4.50;;;2.27;;
36799;SDS011;22752;51.960;5.886;2024-02-04T12:08:22;3.28;;;2.03;;
36799;SDS011;22752;51.960;5.886;2024-02-04T12:10:48;4.93;;;2.40;;
36799;SDS011;22752;51.960;5.886;2024-02-04T12:13:15;5.07;;;3.55;;
36799;SDS011;22752;51.960;5.886;2024-02-04T12:15:41;5.93;;;3.27;;
36799;SDS011;22752;51.960;5.886;2024-02-04T12:18:07;6.67;;;3.73;;
36799;SDS011;22752;51.960;5.886;2024-02-04T12:20:33;10.80;;;4.00;;
36799;SDS011;22752;51.960;5.886;2024-02-04T12:23:01;9.40;;;3.97;;
36799;SDS011;22752;51.960;5.886;2024-02-04T12:25:28;7.83;;;4.40;;
36799;SDS011;22752;51.960;5.886;2024-02-04T12:27:55;10.17;;;5.37;;
36799;SDS011;22752;51.960;5.886;2024-02-04T12:30:28;13.27;;;5.30;;
36799;SDS011;22752;51.960;5.886;2024-02-04T12:33:04;9.70;;;5.23;;
36799;SDS011;22752;51.960;5.886;2024-02-04T12:35:30;9.73;;;6.13;;
36799;SDS011;22752;51.960;5.886;2024-02-04T12:37:57;13.43;;;6.53;;
36799;SDS011;22752;51.960;5.886;2024-02-04T12:40:27;12.90;;;6.33;;
36799;SDS011;22752;51.960;5.886;2024-02-04T12:43:00;10.47;;;6.27;;
36799;SDS011;22752;51.960;5.886;2024-02-04T12:45:27;17.90;;;7.30;;
36799;SDS011;22752;51.960;5.886;2024-02-04T12:47:54;15.85;;;6.03;;
36799;SDS011;22752;51.960;5.886;2024-02-04T12:50:20;14.90;;;6.22;;
36799;SDS011;22752;51.960;5.886;2024-02-04T12:52:46;16.97;;;6.63;;
36799;SDS011;22752;51.960;5.886;2024-02-04T12:55:29;14.70;;;6.13;;
36799;SDS011;22752;51.960;5.886;2024-02-04T13:00:37;23.23;;;6.55;;
36799;SDS011;22752;51.960;5.886;2024-02-04T13:03:03;20.05;;;6.30;;
36799;SDS011;22752;51.960;5.886;2024-02-04T13:05:33;17.10;;;5.93;;
36799;SDS011;22752;51.960;5.886;2024-02-04T13:07:59;13.40;;;5.93;;
36799;SDS011;22752;51.960;5.886;2024-02-04T13:10:33;16.38;;;6.00;;
36799;SDS011;22752;51.960;5.886;2024-02-04T13:13:04;15.57;;;5.80;;
36799;SDS011;22752;51.960;5.886;2024-02-04T13:15:41;15.47;;;5.60;;
36799;SDS011;22752;51.960;5.886;2024-02-04T13:18:08;15.63;;;6.13;;
36799;SDS011;22752;51.960;5.886;2024-02-04T13:20:36;14.50;;;5.40;;
36799;SDS011;22752;51.960;5.886;2024-02-04T13:23:03;19.85;;;6.00;;
36799;SDS011;22752;51.960;5.886;2024-02-04T13:25:31;11.98;;;5.25;;
36799;SDS011;22752;51.960;5.886;2024-02-04T13:27:57;13.23;;;5.37;;
36799;SDS011;22752;51.960;5.886;2024-02-04T13:30:23;18.20;;;6.37;;
36799;SDS011;22752;51.960;5.886;2024-02-04T13:32:49;18.43;;;5.50;;
36799;SDS011;22752;51.960;5.886;2024-02-04T13:35:15;16.53;;;5.67;;
36799;SDS011;22752;51.960;5.886;2024-02-04T13:37:44;14.67;;;6.17;;
36799;SDS011;22752;51.960;5.886;2024-02-04T13:40:13;16.67;;;6.57;;
36799;SDS011;22752;51.960;5.886;2024-02-04T13:42:39;15.00;;;6.13;;
36799;SDS011;22752;51.960;5.886;2024-02-04T13:45:05;17.03;;;6.33;;
36799;SDS011;22752;51.960;5.886;2024-02-04T13:47:31;15.70;;;5.77;;
36799;SDS011;22752;51.960;5.886;2024-02-04T13:49:57;14.50;;;6.30;;
36799;SDS011;22752;51.960;5.886;2024-02-04T13:52:23;14.87;;;6.70;;
36799;SDS011;22752;51.960;5.886;2024-02-04T13:54:48;18.77;;;7.50;;
36799;SDS011;22752;51.960;5.886;2024-02-04T13:57:14;22.13;;;6.80;;
36799;SDS011;22752;51.960;5.886;2024-02-04T13:59:40;17.57;;;5.67;;
36799;SDS011;22752;51.960;5.886;2024-02-04T14:02:07;18.67;;;5.75;;
36799;SDS011;22752;51.960;5.886;2024-02-04T14:04:35;15.60;;;5.80;;
36799;SDS011;22752;51.960;5.886;2024-02-04T14:07:02;16.13;;;5.53;;
36799;SDS011;22752;51.960;5.886;2024-02-04T14:09:28;14.37;;;5.93;;
36799;SDS011;22752;51.960;5.886;2024-02-04T14:11:53;16.97;;;6.43;;
36799;SDS011;22752;51.960;5.886;2024-02-04T14:14:23;19.38;;;6.55;;
36799;SDS011;22752;51.960;5.886;2024-02-04T14:16:49;19.07;;;5.57;;
36799;SDS011;22752;51.960;5.886;2024-02-04T14:19:15;17.60;;;5.93;;
36799;SDS011;22752;51.960;5.886;2024-02-04T14:21:41;17.93;;;5.73;;
36799;SDS011;22752;51.960;5.886;2024-02-04T14:24:07;16.63;;;5.67;;
36799;SDS011;22752;51.960;5.886;2024-02-04T14:26:33;14.57;;;5.87;;
36799;SDS011;22752;51.960;5.886;2024-02-04T14:28:59;13.97;;;5.37;;
36799;SDS011;22752;51.960;5.886;2024-02-04T14:31:25;14.33;;;5.07;;
36799;SDS011;22752;51.960;5.886;2024-02-04T14:33:50;15.80;;;5.30;;
36799;SDS011;22752;51.960;5.886;2024-02-04T14:36:16;12.77;;;4.77;;
36799;SDS011;22752;51.960;5.886;2024-02-04T14:38:42;16.97;;;5.00;;